Red Oak, IA

11:37 PM CST on December 04, 2016 (GMT -0600)
Red Oak Municipal | | Change Station

Elev 1043 ft 41.01 °N, 95.26 °W | Updated 2 minutes ago

Clear
Clear
30 °F
Feels Like 25 °F
N
5
Wind Variable Wind from South

Today
High -- | Low -- °F
--% Chance of Precip.
Yesterday
High -- | Low -- °F
Precip. -- in
Pressure 29.92 in
Visibility 9.0 miles
Clouds Clear
Windchill 25 °F
Dew Point 30 °F
Humidity 100%
Rainfall 0.18 in
Snow Depth Not available.
7:30 AM 4:52 PM
Waxing Crescent, 28% visible
METAR KRDK 050535Z AUTO 19004KT 9SM CLR M01/M01 A2992 RMK AO2
Pressure 29.92 in
Visibility 9.0 miles
Clouds Clear
Windchill 25 °F
Dew Point 30 °F
Humidity 100%
Rainfall 0.18 in
Snow Depth Not available.
7:30 AM 4:52 PM
Waxing Crescent, 28% visible
METAR KRDK 050535Z AUTO 19004KT 9SM CLR M01/M01 A2992 RMK AO2

10-Day Weather Forecast

Almanac

Astronomy

Dec. 04, 2016 Rise Set
Actual Time
Civil Twilight
Nautical Twilight
Astronomical Twilight
Moon
Length of Visible Light
Length of Day
Tomorrow will be .
, % of the Moon is Illuminated

Today's Extremes

State Highs State Lows

Community

WunderPhotos

Upload Photos

1,955,757 photos uploaded!

WunderBlog® & News

Nearby

Air Quality

  Air Quality AQ Index Pollutant
Not available.

Snow Depth

Station Depth Elevation

Earthquake Activity

City Distance Mag. Time & Date
Minimum magnitude displayed is 2.5.

Coastal Water Temperatures

Place Temperature

Stations

Nearby Weather Stations

Station Location Temp. Windchill Dew Point Humidity Wind Precip. Elev Updated Type
                   

Watches & Warnings

There are currently no watches in effect.